sensor_id;sensor_type;location;lat;lon;timestamp;pressure;altitude;pressure_sealevel;temperature;humidity
72802;BME280;61891;55.818;37.084;2023-10-09T00:00:51;97076.81;;;2.85;74.13
72802;BME280;61891;55.818;37.084;2023-10-09T00:03:21;97083.03;;;2.84;74.19
72802;BME280;61891;55.818;37.084;2023-10-09T00:05:53;97083.38;;;2.81;74.01
72802;BME280;61891;55.818;37.084;2023-10-09T00:08:20;97100.72;;;2.82;74.16
72802;BME280;61891;55.818;37.084;2023-10-09T00:11:01;97092.22;;;2.80;74.22
72802;BME280;61891;55.818;37.084;2023-10-09T00:13:41;97085.88;;;2.75;74.03
72802;BME280;61891;55.818;37.084;2023-10-09T00:16:26;97110.00;;;2.85;73.95
72802;BME280;61891;55.818;37.084;2023-10-09T00:19:15;97110.66;;;2.87;74.25
72802;BME280;61891;55.818;37.084;2023-10-09T00:21:46;97112.63;;;2.85;73.99
72802;BME280;61891;55.818;37.084;2023-10-09T00:24:13;97126.34;;;2.87;73.93
72802;BME280;61891;55.818;37.084;2023-10-09T00:26:40;97112.34;;;2.80;74.00
72802;BME280;61891;55.818;37.084;2023-10-09T00:29:13;97111.19;;;2.82;74.29
72802;BME280;61891;55.818;37.084;2023-10-09T00:31:52;97120.81;;;2.82;73.74
72802;BME280;61891;55.818;37.084;2023-10-09T00:34:31;97140.25;;;2.87;74.30
72802;BME280;61891;55.818;37.084;2023-10-09T00:37:06;97129.97;;;2.86;74.18
72802;BME280;61891;55.818;37.084;2023-10-09T00:39:36;97137.97;;;2.84;74.27
72802;BME280;61891;55.818;37.084;2023-10-09T00:42:02;97136.88;;;2.79;74.16
72802;BME280;61891;55.818;37.084;2023-10-09T00:44:31;97158.91;;;2.84;74.45
72802;BME280;61891;55.818;37.084;2023-10-09T00:47:12;97168.72;;;2.82;74.43
72802;BME280;61891;55.818;37.084;2023-10-09T00:49:54;97162.50;;;2.83;74.35
72802;BME280;61891;55.818;37.084;2023-10-09T00:52:32;97167.28;;;2.80;74.63
72802;BME280;61891;55.818;37.084;2023-10-09T00:55:27;97165.28;;;2.82;74.77
72802;BME280;61891;55.818;37.084;2023-10-09T00:58:05;97170.34;;;2.83;75.05
72802;BME280;61891;55.818;37.084;2023-10-09T01:00:40;97154.06;;;2.73;74.46
72802;BME280;61891;55.818;37.084;2023-10-09T01:03:10;97158.09;;;2.84;74.68
72802;BME280;61891;55.818;37.084;2023-10-09T01:05:43;97143.94;;;2.70;74.65
72802;BME280;61891;55.818;37.084;2023-10-09T01:08:19;97175.25;;;2.86;74.59
72802;BME280;61891;55.818;37.084;2023-10-09T01:10:57;97159.47;;;2.72;74.61
72802;BME280;61891;55.818;37.084;2023-10-09T01:13:36;97188.78;;;2.90;74.70
72802;BME280;61891;55.818;37.084;2023-10-09T01:16:22;97159.00;;;2.68;74.36
72802;BME280;61891;55.818;37.084;2023-10-09T01:18:50;97183.56;;;2.90;74.54
72802;BME280;61891;55.818;37.084;2023-10-09T01:21:18;97191.06;;;2.93;74.65
72802;BME280;61891;55.818;37.084;2023-10-09T01:23:46;97214.28;;;2.96;74.68
72802;BME280;61891;55.818;37.084;2023-10-09T01:26:44;97200.19;;;2.97;74.67
72802;BME280;61891;55.818;37.084;2023-10-09T01:29:19;97207.06;;;2.98;74.65
72802;BME280;61891;55.818;37.084;2023-10-09T01:31:47;97219.69;;;2.95;74.96
72802;BME280;61891;55.818;37.084;2023-10-09T01:34:27;97227.34;;;2.96;74.85
72802;BME280;61891;55.818;37.084;2023-10-09T01:37:10;97228.81;;;2.99;74.87
72802;BME280;61891;55.818;37.084;2023-10-09T01:39:49;97221.34;;;2.87;74.82
72802;BME280;61891;55.818;37.084;2023-10-09T01:42:17;97248.75;;;3.00;74.96
72802;BME280;61891;55.818;37.084;2023-10-09T01:44:56;97232.94;;;2.93;74.76
72802;BME280;61891;55.818;37.084;2023-10-09T01:47:35;97260.22;;;2.99;74.86
72802;BME280;61891;55.818;37.084;2023-10-09T01:50:04;97260.03;;;3.00;74.72
72802;BME280;61891;55.818;37.084;2023-10-09T01:52:30;97275.09;;;2.98;74.97
72802;BME280;61891;55.818;37.084;2023-10-09T01:54:56;97273.94;;;3.01;75.02
72802;BME280;61891;55.818;37.084;2023-10-09T01:57:39;97279.81;;;3.03;74.92
72802;BME280;61891;55.818;37.084;2023-10-09T02:00:05;97253.56;;;2.88;75.07
72802;BME280;61891;55.818;37.084;2023-10-09T02:02:38;97278.31;;;3.08;74.87
72802;BME280;61891;55.818;37.084;2023-10-09T02:05:08;97273.75;;;3.10;74.93
72802;BME280;61891;55.818;37.084;2023-10-09T02:07:39;97274.72;;;3.09;74.63
72802;BME280;61891;55.818;37.084;2023-10-09T02:10:19;97277.16;;;3.11;74.85
72802;BME280;61891;55.818;37.084;2023-10-09T02:13:01;97284.53;;;3.07;74.80
72802;BME280;61891;55.818;37.084;2023-10-09T02:15:39;97274.72;;;3.09;74.98
72802;BME280;61891;55.818;37.084;2023-10-09T02:18:26;97275.03;;;3.14;74.82
72802;BME280;61891;55.818;37.084;2023-10-09T02:23:42;97288.63;;;3.10;74.50
72802;BME280;61891;55.818;37.084;2023-10-09T02:26:12;97283.44;;;3.02;74.60
72802;BME280;61891;55.818;37.084;2023-10-09T02:28:55;97297.28;;;3.10;74.69
72802;BME280;61891;55.818;37.084;2023-10-09T02:31:27;97303.34;;;3.11;74.26
72802;BME280;61891;55.818;37.084;2023-10-09T02:34:01;97263.06;;;2.81;74.25
72802;BME280;61891;55.818;37.084;2023-10-09T02:36:34;97331.59;;;3.23;74.43
72802;BME280;61891;55.818;37.084;2023-10-09T02:39:03;97311.53;;;3.08;74.49
72802;BME280;61891;55.818;37.084;2023-10-09T02:41:31;97341.41;;;3.21;74.10
72802;BME280;61891;55.818;37.084;2023-10-09T02:44:00;97328.31;;;3.21;74.17
72802;BME280;61891;55.818;37.084;2023-10-09T02:46:36;97336.03;;;3.15;74.54
72802;BME280;61891;55.818;37.084;2023-10-09T02:49:02;97360.84;;;3.27;74.24
72802;BME280;61891;55.818;37.084;2023-10-09T02:51:31;97365.94;;;3.29;74.40
72802;BME280;61891;55.818;37.084;2023-10-09T02:54:01;97361.34;;;3.31;74.21
72802;BME280;61891;55.818;37.084;2023-10-09T02:56:45;97366.56;;;3.31;74.09
72802;BME280;61891;55.818;37.084;2023-10-09T02:59:14;97340.47;;;3.14;74.08
72802;BME280;61891;55.818;37.084;2023-10-09T03:01:40;97382.75;;;3.34;74.23
72802;BME280;61891;55.818;37.084;2023-10-09T03:04:07;97357.16;;;3.13;74.24
72802;BME280;61891;55.818;37.084;2023-10-09T03:06:37;97391.09;;;3.38;74.23
72802;BME280;61891;55.818;37.084;2023-10-09T03:09:10;97359.09;;;3.19;74.35
72802;BME280;61891;55.818;37.084;2023-10-09T03:11:49;97368.59;;;3.12;74.17
72802;BME280;61891;55.818;37.084;2023-10-09T03:14:20;97394.69;;;3.37;74.20
72802;BME280;61891;55.818;37.084;2023-10-09T03:16:47;97355.03;;;3.09;74.37
72802;BME280;61891;55.818;37.084;2023-10-09T03:19:15;97411.06;;;3.39;74.29
72802;BME280;61891;55.818;37.084;2023-10-09T03:21:42;97414.66;;;3.38;74.13
72802;BME280;61891;55.818;37.084;2023-10-09T03:24:10;97373.84;;;3.12;74.33
72802;BME280;61891;55.818;37.084;2023-10-09T03:26:37;97397.03;;;3.23;74.33
72802;BME280;61891;55.818;37.084;2023-10-09T03:29:03;97414.19;;;3.34;74.52
72802;BME280;61891;55.818;37.084;2023-10-09T03:31:33;97398.84;;;3.23;74.21
72802;BME280;61891;55.818;37.084;2023-10-09T03:33:59;97426.59;;;3.40;74.32
72802;BME280;61891;55.818;37.084;2023-10-09T03:36:25;97385.47;;;3.10;74.07
72802;BME280;61891;55.818;37.084;2023-10-09T03:38:52;97433.28;;;3.43;74.34
72802;BME280;61891;55.818;37.084;2023-10-09T03:41:26;97437.56;;;3.36;74.20
72802;BME280;61891;55.818;37.084;2023-10-09T03:43:53;97441.31;;;3.41;74.42
72802;BME280;61891;55.818;37.084;2023-10-09T03:46:22;97437.91;;;3.33;74.45
72802;BME280;61891;55.818;37.084;2023-10-09T03:48:58;97459.47;;;3.43;74.24
72802;BME280;61891;55.818;37.084;2023-10-09T03:51:27;97447.22;;;3.35;74.25
72802;BME280;61891;55.818;37.084;2023-10-09T03:53:53;97465.53;;;3.43;74.20
72802;BME280;61891;55.818;37.084;2023-10-09T03:56:19;97450.84;;;3.34;74.08
72802;BME280;61891;55.818;37.084;2023-10-09T03:58:50;97458.53;;;3.36;73.95
72802;BME280;61891;55.818;37.084;2023-10-09T04:01:19;97392.06;;;2.89;74.19
72802;BME280;61891;55.818;37.084;2023-10-09T04:03:53;97456.91;;;3.27;73.82
72802;BME280;61891;55.818;37.084;2023-10-09T04:06:30;97484.72;;;3.36;74.01
72802;BME280;61891;55.818;37.084;2023-10-09T04:09:04;97465.09;;;3.23;73.98
72802;BME280;61891;55.818;37.084;2023-10-09T04:11:45;97486.19;;;3.30;74.07
72802;BME280;61891;55.818;37.084;2023-10-09T04:14:13;97486.19;;;3.30;74.03
72802;BME280;61891;55.818;37.084;2023-10-09T04:16:53;97456.31;;;3.08;74.01
72802;BME280;61891;55.818;37.084;2023-10-09T04:19:30;97483.25;;;3.25;74.00
72802;BME280;61891;55.818;37.084;2023-10-09T04:22:05;97503.69;;;3.38;73.64
72802;BME280;61891;55.818;37.084;2023-10-09T04:24:34;97507.78;;;3.40;73.79
72802;BME280;61891;55.818;37.084;2023-10-09T04:27:10;97453.03;;;3.06;74.00
72802;BME280;61891;55.818;37.084;2023-10-09T04:29:35;97517.09;;;3.43;73.90
72802;BME280;61891;55.818;37.084;2023-10-09T04:32:05;97502.41;;;3.26;73.91
72802;BME280;61891;55.818;37.084;2023-10-09T04:34:42;97524.13;;;3.42;73.84
72802;BME280;61891;55.818;37.084;2023-10-09T04:37:15;97526.94;;;3.41;73.86
72802;BME280;61891;55.818;37.084;2023-10-09T04:39:44;97527.91;;;3.40;73.75
72802;BME280;61891;55.818;37.084;2023-10-09T04:42:16;97527.41;;;3.36;73.66
72802;BME280;61891;55.818;37.084;2023-10-09T04:44:52;97533.47;;;3.37;73.58
72802;BME280;61891;55.818;37.084;2023-10-09T04:47:35;97535.13;;;3.38;73.76
72802;BME280;61891;55.818;37.084;2023-10-09T04:50:09;97542.31;;;3.44;73.88
72802;BME280;61891;55.818;37.084;2023-10-09T04:52:44;97489.97;;;3.19;74.08
72802;BME280;61891;55.818;37.084;2023-10-09T04:55:10;97532.31;;;3.39;73.75
72802;BME280;61891;55.818;37.084;2023-10-09T04:57:38;97550.31;;;3.50;73.51
72802;BME280;61891;55.818;37.084;2023-10-09T05:02:59;97556.69;;;3.48;73.71
72802;BME280;61891;55.818;37.084;2023-10-09T05:05:33;97566.84;;;3.51;73.74
72802;BME280;61891;55.818;37.084;2023-10-09T05:08:10;97527.13;;;3.23;73.70
72802;BME280;61891;55.818;37.084;2023-10-09T05:10:50;97535.78;;;3.32;73.67
72802;BME280;61891;55.818;37.084;2023-10-09T05:18:52;97572.22;;;3.58;73.80
72802;BME280;61891;55.818;37.084;2023-10-09T05:21:38;97570.13;;;3.53;73.62
72802;BME280;61891;55.818;37.084;2023-10-09T05:24:08;97584.16;;;3.68;73.80
72802;BME280;61891;55.818;37.084;2023-10-09T05:26:45;97589.72;;;3.73;73.65
72802;BME280;61891;55.818;37.084;2023-10-09T05:29:12;97590.84;;;3.79;73.50
72802;BME280;61891;55.818;37.084;2023-10-09T05:31:57;97590.19;;;3.85;73.14
72802;BME280;61891;55.818;37.084;2023-10-09T05:34:29;97565.16;;;3.74;73.41
72802;BME280;61891;55.818;37.084;2023-10-09T05:37:13;97604.25;;;3.92;73.17
72802;BME280;61891;55.818;37.084;2023-10-09T05:39:44;97601.47;;;3.94;73.22
72802;BME280;61891;55.818;37.084;2023-10-09T05:42:24;97610.97;;;3.95;73.09
72802;BME280;61891;55.818;37.084;2023-10-09T05:44:55;97569.09;;;3.70;73.24
72802;BME280;61891;55.818;37.084;2023-10-09T05:47:39;97604.91;;;3.94;73.28
72802;BME280;61891;55.818;37.084;2023-10-09T05:50:19;97618.78;;;4.03;73.25
72802;BME280;61891;55.818;37.084;2023-10-09T05:52:44;97604.75;;;3.87;73.07
72802;BME280;61891;55.818;37.084;2023-10-09T05:55:23;97632.41;;;3.98;72.99
72802;BME280;61891;55.818;37.084;2023-10-09T05:57:50;97629.97;;;3.97;73.00
72802;BME280;61891;55.818;37.084;2023-10-09T06:00:35;97635.22;;;3.88;73.14
72802;BME280;61891;55.818;37.084;2023-10-09T06:03:19;97646.50;;;3.97;73.11
72802;BME280;61891;55.818;37.084;2023-10-09T06:08:31;97601.88;;;3.58;72.98
72802;BME280;61891;55.818;37.084;2023-10-09T06:11:15;97657.31;;;3.94;72.78
72802;BME280;61891;55.818;37.084;2023-10-09T06:14:00;97680.41;;;3.99;72.90
72802;BME280;61891;55.818;37.084;2023-10-09T06:16:30;97675.16;;;3.99;72.80
72802;BME280;61891;55.818;37.084;2023-10-09T06:19:05;97674.19;;;3.92;72.78
72802;BME280;61891;55.818;37.084;2023-10-09T06:21:39;97646.69;;;3.79;73.04
72802;BME280;61891;55.818;37.084;2023-10-09T06:24:25;97641.63;;;3.70;73.16
72802;BME280;61891;55.818;37.084;2023-10-09T06:26:59;97696.94;;;3.99;73.02
72802;BME280;61891;55.818;37.084;2023-10-09T06:29:26;97693.00;;;4.03;72.97
72802;BME280;61891;55.818;37.084;2023-10-09T06:32:05;97672.06;;;3.87;72.76
72802;BME280;61891;55.818;37.084;2023-10-09T06:35:01;97704.00;;;4.07;73.22
72802;BME280;61891;55.818;37.084;2023-10-09T06:37:47;97599.75;;;3.45;72.71
72802;BME280;61891;55.818;37.084;2023-10-09T06:40:31;97658.66;;;3.82;72.51
72802;BME280;61891;55.818;37.084;2023-10-09T06:43:16;97701.03;;;4.18;72.80
72802;BME280;61891;55.818;37.084;2023-10-09T06:45:43;97711.81;;;4.23;72.61
72802;BME280;61891;55.818;37.084;2023-10-09T06:48:13;97689.53;;;4.19;72.87
72802;BME280;61891;55.818;37.084;2023-10-09T06:51:02;97714.94;;;4.27;72.52
72802;BME280;61891;55.818;37.084;2023-10-09T06:53:46;97708.22;;;4.24;72.45
72802;BME280;61891;55.818;37.084;2023-10-09T06:56:26;97725.38;;;4.43;72.21
72802;BME280;61891;55.818;37.084;2023-10-09T06:59:00;97708.47;;;4.45;72.51
72802;BME280;61891;55.818;37.084;2023-10-09T07:01:52;97716.00;;;4.57;72.21
72802;BME280;61891;55.818;37.084;2023-10-09T07:04:37;97738.56;;;4.74;72.22
72802;BME280;61891;55.818;37.084;2023-10-09T07:07:03;97702.38;;;4.53;72.14
72802;BME280;61891;55.818;37.084;2023-10-09T07:09:38;97744.75;;;4.81;72.24
72802;BME280;61891;55.818;37.084;2023-10-09T07:12:39;97756.09;;;4.81;72.37
72802;BME280;61891;55.818;37.084;2023-10-09T07:15:09;97732.31;;;4.75;72.16
72802;BME280;61891;55.818;37.084;2023-10-09T07:17:54;97763.63;;;4.84;71.89
72802;BME280;61891;55.818;37.084;2023-10-09T07:20:21;97766.72;;;4.88;72.02
72802;BME280;61891;55.818;37.084;2023-10-09T07:23:03;97753.63;;;4.80;71.82
72802;BME280;61891;55.818;37.084;2023-10-09T07:25:44;97778.00;;;4.97;71.85
72802;BME280;61891;55.818;37.084;2023-10-09T07:28:24;97762.63;;;4.85;70.86
72802;BME280;61891;55.818;37.084;2023-10-09T07:31:03;97782.75;;;5.01;71.26
72802;BME280;61891;55.818;37.084;2023-10-09T07:33:31;97782.88;;;5.08;71.53
72802;BME280;61891;55.818;37.084;2023-10-09T07:36:16;97775.84;;;5.00;71.19
72802;BME280;61891;55.818;37.084;2023-10-09T07:38:55;97767.28;;;5.06;70.98
72802;BME280;61891;55.818;37.084;2023-10-09T07:41:21;97801.72;;;5.19;71.01
72802;BME280;61891;55.818;37.084;2023-10-09T07:43:47;97798.09;;;5.29;70.94
72802;BME280;61891;55.818;37.084;2023-10-09T07:46:18;97803.28;;;5.37;71.11
72802;BME280;61891;55.818;37.084;2023-10-09T07:49:03;97799.69;;;5.38;70.58
72802;BME280;61891;55.818;37.084;2023-10-09T07:51:38;97813.38;;;5.56;70.67
72802;BME280;61891;55.818;37.084;2023-10-09T07:54:04;97818.56;;;5.64;70.62
72802;BME280;61891;55.818;37.084;2023-10-09T07:59:07;97828.22;;;5.72;70.11
72802;BME280;61891;55.818;37.084;2023-10-09T08:01:41;97811.84;;;5.62;70.00
72802;BME280;61891;55.818;37.084;2023-10-09T08:04:29;97838.03;;;5.78;69.95
72802;BME280;61891;55.818;37.084;2023-10-09T08:07:15;97801.81;;;5.65;69.96
72802;BME280;61891;55.818;37.084;2023-10-09T08:10:05;97836.53;;;5.83;69.59
72802;BME280;61891;55.818;37.084;2023-10-09T08:12:46;97835.88;;;5.90;69.68
72802;BME280;61891;55.818;37.084;2023-10-09T08:15:16;97840.78;;;5.93;69.64
72802;BME280;61891;55.818;37.084;2023-10-09T08:17:50;97844.50;;;5.98;69.58
72802;BME280;61891;55.818;37.084;2023-10-09T08:20:23;97846.69;;;5.95;69.14
72802;BME280;61891;55.818;37.084;2023-10-09T08:22:53;97851.41;;;5.99;68.95
72802;BME280;61891;55.818;37.084;2023-10-09T08:25:23;97852.75;;;5.95;69.19
72802;BME280;61891;55.818;37.084;2023-10-09T08:27:57;97846.16;;;5.99;68.94
72802;BME280;61891;55.818;37.084;2023-10-09T08:30:44;97845.03;;;5.94;68.85
72802;BME280;61891;55.818;37.084;2023-10-09T08:33:16;97795.91;;;5.63;68.66
72802;BME280;61891;55.818;37.084;2023-10-09T08:35:52;97867.09;;;6.16;68.85
72802;BME280;61891;55.818;37.084;2023-10-09T08:38:21;97869.19;;;6.20;68.49
72802;BME280;61891;55.818;37.084;2023-10-09T08:40:52;97877.00;;;6.28;68.55
72802;BME280;61891;55.818;37.084;2023-10-09T08:43:24;97887.00;;;6.33;68.26
72802;BME280;61891;55.818;37.084;2023-10-09T08:45:53;97888.19;;;6.30;68.31
72802;BME280;61891;55.818;37.084;2023-10-09T08:48:20;97882.28;;;6.28;68.04
72802;BME280;61891;55.818;37.084;2023-10-09T08:50:52;97880.19;;;6.24;67.71
72802;BME280;61891;55.818;37.084;2023-10-09T08:53:22;97860.53;;;6.11;67.89
72802;BME280;61891;55.818;37.084;2023-10-09T08:55:49;97884.56;;;6.31;67.27
72802;BME280;61891;55.818;37.084;2023-10-09T08:58:17;97900.63;;;6.36;67.52
72802;BME280;61891;55.818;37.084;2023-10-09T09:00:51;97901.97;;;6.32;67.74
72802;BME280;61891;55.818;37.084;2023-10-09T09:03:20;97913.56;;;6.46;67.35
72802;BME280;61891;55.818;37.084;2023-10-09T09:05:59;97883.31;;;6.42;67.48
72802;BME280;61891;55.818;37.084;2023-10-09T09:08:32;97901.97;;;6.55;67.05
72802;BME280;61891;55.818;37.084;2023-10-09T09:14:06;97920.84;;;6.59;67.26
72802;BME280;61891;55.818;37.084;2023-10-09T09:16:40;97926.84;;;6.53;67.38
72802;BME280;61891;55.818;37.084;2023-10-09T09:19:10;97923.19;;;6.54;67.18
72802;BME280;61891;55.818;37.084;2023-10-09T09:21:37;97937.22;;;6.69;67.38
72802;BME280;61891;55.818;37.084;2023-10-09T09:24:11;97929.16;;;6.70;66.86
72802;BME280;61891;55.818;37.084;2023-10-09T09:26:44;97927.06;;;6.66;66.70
72802;BME280;61891;55.818;37.084;2023-10-09T09:29:39;97898.28;;;6.41;66.29
72802;BME280;61891;55.818;37.084;2023-10-09T09:32:07;97909.94;;;6.47;66.61
72802;BME280;61891;55.818;37.084;2023-10-09T09:34:50;97927.19;;;6.50;66.47
72802;BME280;61891;55.818;37.084;2023-10-09T09:37:24;97946.19;;;6.60;66.54
72802;BME280;61891;55.818;37.084;2023-10-09T09:40:09;97957.31;;;6.70;66.44
72802;BME280;61891;55.818;37.084;2023-10-09T09:43:00;97941.91;;;6.59;65.91
72802;BME280;61891;55.818;37.084;2023-10-09T09:45:37;97962.28;;;6.65;65.85
72802;BME280;61891;55.818;37.084;2023-10-09T09:48:05;97961.09;;;6.67;65.86
72802;BME280;61891;55.818;37.084;2023-10-09T09:50:38;97953.38;;;6.66;65.26
72802;BME280;61891;55.818;37.084;2023-10-09T09:53:13;97967.75;;;6.78;65.30
72802;BME280;61891;55.818;37.084;2023-10-09T09:55:51;97932.53;;;6.79;64.87
72802;BME280;61891;55.818;37.084;2023-10-09T09:58:25;97929.88;;;7.31;64.49
72802;BME280;61891;55.818;37.084;2023-10-09T10:00:57;97948.41;;;7.67;63.45
72802;BME280;61891;55.818;37.084;2023-10-09T10:03:36;97895.03;;;7.65;63.45
72802;BME280;61891;55.818;37.084;2023-10-09T10:06:05;97932.16;;;7.64;62.94
72802;BME280;61891;55.818;37.084;2023-10-09T10:08:36;97967.16;;;7.72;63.50
72802;BME280;61891;55.818;37.084;2023-10-09T10:11:05;97955.97;;;7.70;63.39
72802;BME280;61891;55.818;37.084;2023-10-09T10:16:21;97977.53;;;7.74;63.07
72802;BME280;61891;55.818;37.084;2023-10-09T10:19:03;97972.97;;;7.68;62.96
72802;BME280;61891;55.818;37.084;2023-10-09T10:21:35;97978.78;;;7.63;63.04
72802;BME280;61891;55.818;37.084;2023-10-09T10:29:37;97984.84;;;7.20;63.32
72802;BME280;61891;55.818;37.084;2023-10-09T10:32:04;97987.91;;;7.08;63.48
72802;BME280;61891;55.818;37.084;2023-10-09T10:37:15;97998.25;;;6.95;63.39
72802;BME280;61891;55.818;37.084;2023-10-09T10:39:53;97995.16;;;6.69;63.58
72802;BME280;61891;55.818;37.084;2023-10-09T10:42:25;97993.09;;;6.56;64.29
72802;BME280;61891;55.818;37.084;2023-10-09T10:45:03;98004.16;;;6.52;64.63
72802;BME280;61891;55.818;37.084;2023-10-09T10:47:49;98001.56;;;6.43;65.09
72802;BME280;61891;55.818;37.084;2023-10-09T10:50:17;98020.94;;;6.51;65.23
72802;BME280;61891;55.818;37.084;2023-10-09T10:53:14;98026.50;;;6.56;65.53
72802;BME280;61891;55.818;37.084;2023-10-09T10:56:10;98029.44;;;6.61;65.53
72802;BME280;61891;55.818;37.084;2023-10-09T10:58:54;97998.31;;;6.41;65.31
72802;BME280;61891;55.818;37.084;2023-10-09T11:01:33;98016.22;;;6.46;65.42
72802;BME280;61891;55.818;37.084;2023-10-09T11:04:19;98036.63;;;6.44;65.03
72802;BME280;61891;55.818;37.084;2023-10-09T11:07:04;98038.44;;;6.43;65.77
72802;BME280;61891;55.818;37.084;2023-10-09T11:09:52;98051.94;;;6.40;65.62
72802;BME280;61891;55.818;37.084;2023-10-09T11:15:09;98042.47;;;6.23;65.79
72802;BME280;61891;55.818;37.084;2023-10-09T11:18:00;98058.00;;;6.10;65.95
72802;BME280;61891;55.818;37.084;2023-10-09T11:20:36;98028.66;;;5.90;66.41
72802;BME280;61891;55.818;37.084;2023-10-09T11:23:04;98038.81;;;5.93;66.41
72802;BME280;61891;55.818;37.084;2023-10-09T11:25:39;98072.63;;;6.12;66.49
72802;BME280;61891;55.818;37.084;2023-10-09T11:28:22;98070.00;;;6.04;66.34
72802;BME280;61891;55.818;37.084;2023-10-09T11:31:10;98078.56;;;6.06;66.82
72802;BME280;61891;55.818;37.084;2023-10-09T11:33:48;98072.81;;;6.03;66.86
72802;BME280;61891;55.818;37.084;2023-10-09T11:36:21;98079.09;;;5.94;66.83
72802;BME280;61891;55.818;37.084;2023-10-09T11:39:01;98076.13;;;5.89;67.05
72802;BME280;61891;55.818;37.084;2023-10-09T11:41:45;98088.44;;;5.96;66.94
72802;BME280;61891;55.818;37.084;2023-10-09T11:44:15;98097.97;;;5.97;66.97
72802;BME280;61891;55.818;37.084;2023-10-09T11:47:00;98098.16;;;5.96;67.10
72802;BME280;61891;55.818;37.084;2023-10-09T11:49:52;98037.13;;;5.45;67.25
72802;BME280;61891;55.818;37.084;2023-10-09T11:52:32;98109.66;;;5.87;67.27
72802;BME280;61891;55.818;37.084;2023-10-09T11:55:02;98111.78;;;5.83;67.26
72802;BME280;61891;55.818;37.084;2023-10-09T11:57:30;98117.56;;;5.78;67.62
72802;BME280;61891;55.818;37.084;2023-10-09T11:59:57;98090.47;;;5.62;67.33
72802;BME280;61891;55.818;37.084;2023-10-09T12:02:24;98128.06;;;5.78;67.85
72802;BME280;61891;55.818;37.084;2023-10-09T12:04:50;98065.69;;;5.48;67.47
72802;BME280;61891;55.818;37.084;2023-10-09T12:07:16;98112.78;;;5.74;67.59
72802;BME280;61891;55.818;37.084;2023-10-09T12:09:41;98123.16;;;5.75;67.31
72802;BME280;61891;55.818;37.084;2023-10-09T12:12:08;98113.78;;;5.73;67.33
72802;BME280;61891;55.818;37.084;2023-10-09T12:14:37;98127.06;;;5.88;66.99
72802;BME280;61891;55.818;37.084;2023-10-09T12:17:07;98119.38;;;5.78;67.24
72802;BME280;61891;55.818;37.084;2023-10-09T12:19:35;98112.28;;;5.78;67.19
72802;BME280;61891;55.818;37.084;2023-10-09T12:22:03;98129.06;;;5.94;67.41
72802;BME280;61891;55.818;37.084;2023-10-09T12:24:32;98133.16;;;5.96;67.06
72802;BME280;61891;55.818;37.084;2023-10-09T12:26:59;98139.56;;;5.94;67.24
72802;BME280;61891;55.818;37.084;2023-10-09T12:29:26;98142.53;;;5.99;67.12
72802;BME280;61891;55.818;37.084;2023-10-09T12:31:57;98134.16;;;5.95;66.77
72802;BME280;61891;55.818;37.084;2023-10-09T12:34:27;98142.03;;;5.95;66.92
72802;BME280;61891;55.818;37.084;2023-10-09T12:36:53;98130.38;;;5.90;67.15
72802;BME280;61891;55.818;37.084;2023-10-09T12:39:20;98148.28;;;5.86;66.97
72802;BME280;61891;55.818;37.084;2023-10-09T12:41:47;98144.50;;;5.72;66.99
72802;BME280;61891;55.818;37.084;2023-10-09T12:44:14;98171.13;;;5.77;67.16
72802;BME280;61891;55.818;37.084;2023-10-09T12:46:44;98169.00;;;5.73;67.34
72802;BME280;61891;55.818;37.084;2023-10-09T12:49:20;98154.38;;;5.62;67.18
72802;BME280;61891;55.818;37.084;2023-10-09T12:51:53;98162.59;;;5.59;67.26
72802;BME280;61891;55.818;37.084;2023-10-09T12:54:19;98161.78;;;5.59;67.21
72802;BME280;61891;55.818;37.084;2023-10-09T12:56:55;98172.78;;;5.54;67.14
72802;BME280;61891;55.818;37.084;2023-10-09T12:59:22;98129.41;;;5.26;67.20
72802;BME280;61891;55.818;37.084;2023-10-09T13:01:50;98151.91;;;5.44;67.83
72802;BME280;61891;55.818;37.084;2023-10-09T13:04:24;98119.88;;;5.25;67.43
72802;BME280;61891;55.818;37.084;2023-10-09T13:06:57;98174.41;;;5.55;67.26
72802;BME280;61891;55.818;37.084;2023-10-09T13:09:29;98174.09;;;5.50;67.30
72802;BME280;61891;55.818;37.084;2023-10-09T13:12:02;98185.09;;;5.45;67.48
72802;BME280;61891;55.818;37.084;2023-10-09T13:14:28;98159.31;;;5.33;67.29
72802;BME280;61891;55.818;37.084;2023-10-09T13:16:54;98195.94;;;5.42;67.41
72802;BME280;61891;55.818;37.084;2023-10-09T13:19:20;98193.97;;;5.44;67.59
72802;BME280;61891;55.818;37.084;2023-10-09T13:21:50;98193.47;;;5.49;67.78
72802;BME280;61891;55.818;37.084;2023-10-09T13:24:16;98179.19;;;5.35;67.68
72802;BME280;61891;55.818;37.084;2023-10-09T13:26:43;98197.41;;;5.45;67.62
72802;BME280;61891;55.818;37.084;2023-10-09T13:29:17;98211.22;;;5.47;67.85
72802;BME280;61891;55.818;37.084;2023-10-09T13:31:49;98169.44;;;5.19;67.99
72802;BME280;61891;55.818;37.084;2023-10-09T13:34:18;98194.75;;;5.29;67.66
72802;BME280;61891;55.818;37.084;2023-10-09T13:36:44;98223.03;;;5.43;67.93
72802;BME280;61891;55.818;37.084;2023-10-09T13:39:19;98222.38;;;5.49;68.02
72802;BME280;61891;55.818;37.084;2023-10-09T13:44:33;98239.13;;;5.48;67.95
72802;BME280;61891;55.818;37.084;2023-10-09T13:47:02;98205.78;;;5.32;67.79
72802;BME280;61891;55.818;37.084;2023-10-09T13:49:31;98161.03;;;5.00;67.97
72802;BME280;61891;55.818;37.084;2023-10-09T13:51:59;98236.19;;;5.51;67.80
72802;BME280;61891;55.818;37.084;2023-10-09T13:54:30;98245.38;;;5.47;67.91
72802;BME280;61891;55.818;37.084;2023-10-09T13:57:00;98241.59;;;5.58;67.82
72802;BME280;61891;55.818;37.084;2023-10-09T13:59:25;98244.06;;;5.59;68.15
72802;BME280;61891;55.818;37.084;2023-10-09T14:01:52;98253.91;;;5.49;67.68
72802;BME280;61891;55.818;37.084;2023-10-09T14:04:24;98254.41;;;5.53;67.91
72802;BME280;61891;55.818;37.084;2023-10-09T14:06:50;98269.19;;;5.54;67.85
72802;BME280;61891;55.818;37.084;2023-10-09T14:09:28;98269.53;;;5.59;68.14
72802;BME280;61891;55.818;37.084;2023-10-09T14:11:57;98270.03;;;5.62;67.82